sensor_id;sensor_type;location;lat;lon;timestamp;P1;durP1;ratioP1;P2;durP2;ratioP2
32455;SDS011;18912;43.270;27.942;2022-09-09T00:01:54;11.85;;;1.63;;
32455;SDS011;18912;43.270;27.942;2022-09-09T00:04:29;5.22;;;1.80;;
32455;SDS011;18912;43.270;27.942;2022-09-09T00:07:04;4.43;;;1.60;;
32455;SDS011;18912;43.270;27.942;2022-09-09T00:20:19;7.75;;;1.60;;
32455;SDS011;18912;43.270;27.942;2022-09-09T00:23:00;6.63;;;1.80;;
32455;SDS011;18912;43.270;27.942;2022-09-09T00:28:18;8.98;;;1.92;;
32455;SDS011;18912;43.270;27.942;2022-09-09T00:30:47;5.85;;;2.03;;
32455;SDS011;18912;43.270;27.942;2022-09-09T00:33:13;2.73;;;1.80;;
32455;SDS011;18912;43.270;27.942;2022-09-09T00:35:45;2.78;;;1.73;;
32455;SDS011;18912;43.270;27.942;2022-09-09T00:38:18;2.13;;;1.65;;
32455;SDS011;18912;43.270;27.942;2022-09-09T00:40:49;8.45;;;2.00;;
32455;SDS011;18912;43.270;27.942;2022-09-09T00:43:36;4.40;;;1.33;;
32455;SDS011;18912;43.270;27.942;2022-09-09T00:46:41;4.63;;;1.77;;
32455;SDS011;18912;43.270;27.942;2022-09-09T00:59:34;4.50;;;1.77;;
32455;SDS011;18912;43.270;27.942;2022-09-09T01:02:18;6.13;;;1.90;;
32455;SDS011;18912;43.270;27.942;2022-09-09T01:04:47;6.13;;;1.70;;
32455;SDS011;18912;43.270;27.942;2022-09-09T01:07:16;4.47;;;1.40;;
32455;SDS011;18912;43.270;27.942;2022-09-09T01:15:00;7.93;;;1.92;;
32455;SDS011;18912;43.270;27.942;2022-09-09T01:17:31;4.30;;;1.52;;
32455;SDS011;18912;43.270;27.942;2022-09-09T01:20:05;4.57;;;1.65;;
32455;SDS011;18912;43.270;27.942;2022-09-09T01:25:29;2.65;;;1.52;;
32455;SDS011;18912;43.270;27.942;2022-09-09T01:28:15;5.65;;;1.58;;
32455;SDS011;18912;43.270;27.942;2022-09-09T01:30:44;6.07;;;1.70;;
32455;SDS011;18912;43.270;27.942;2022-09-09T01:33:12;2.03;;;1.50;;
32455;SDS011;18912;43.270;27.942;2022-09-09T01:38:12;3.65;;;1.60;;
32455;SDS011;18912;43.270;27.942;2022-09-09T01:40:39;5.80;;;1.75;;
32455;SDS011;18912;43.270;27.942;2022-09-09T01:43:04;3.90;;;1.47;;
32455;SDS011;18912;43.270;27.942;2022-09-09T01:45:31;4.72;;;1.92;;
32455;SDS011;18912;43.270;27.942;2022-09-09T01:47:57;3.47;;;1.80;;
32455;SDS011;18912;43.270;27.942;2022-09-09T01:50:24;2.28;;;1.40;;
32455;SDS011;18912;43.270;27.942;2022-09-09T01:52:50;5.20;;;1.67;;
32455;SDS011;18912;43.270;27.942;2022-09-09T01:55:23;2.65;;;1.40;;
32455;SDS011;18912;43.270;27.942;2022-09-09T02:00:34;6.55;;;2.03;;
32455;SDS011;18912;43.270;27.942;2022-09-09T02:03:16;3.78;;;1.90;;
32455;SDS011;18912;43.270;27.942;2022-09-09T02:05:58;4.57;;;1.42;;
32455;SDS011;18912;43.270;27.942;2022-09-09T02:08:46;2.05;;;1.50;;
32455;SDS011;18912;43.270;27.942;2022-09-09T02:13:47;8.27;;;1.80;;
32455;SDS011;18912;43.270;27.942;2022-09-09T02:21:29;3.58;;;1.77;;
32455;SDS011;18912;43.270;27.942;2022-09-09T02:23:57;6.68;;;1.80;;
32455;SDS011;18912;43.270;27.942;2022-09-09T02:26:29;11.65;;;1.95;;
32455;SDS011;18912;43.270;27.942;2022-09-09T02:28:58;4.15;;;1.90;;
32455;SDS011;18912;43.270;27.942;2022-09-09T02:31:27;4.80;;;2.05;;
32455;SDS011;18912;43.270;27.942;2022-09-09T02:33:55;2.83;;;1.63;;
32455;SDS011;18912;43.270;27.942;2022-09-09T02:36:24;3.88;;;1.70;;
32455;SDS011;18912;43.270;27.942;2022-09-09T02:38:54;4.32;;;1.30;;
32455;SDS011;18912;43.270;27.942;2022-09-09T02:41:23;3.55;;;1.58;;
32455;SDS011;18912;43.270;27.942;2022-09-09T02:43:59;3.85;;;1.45;;
32455;SDS011;18912;43.270;27.942;2022-09-09T02:46:43;12.77;;;1.83;;
32455;SDS011;18912;43.270;27.942;2022-09-09T02:49:17;6.80;;;1.80;;
32455;SDS011;18912;43.270;27.942;2022-09-09T02:52:15;4.13;;;1.70;;
32455;SDS011;18912;43.270;27.942;2022-09-09T02:54:45;7.13;;;2.15;;
32455;SDS011;18912;43.270;27.942;2022-09-09T02:57:17;3.45;;;1.67;;
32455;SDS011;18912;43.270;27.942;2022-09-09T02:59:47;4.10;;;1.98;;
32455;SDS011;18912;43.270;27.942;2022-09-09T03:02:14;7.38;;;3.03;;
32455;SDS011;18912;43.270;27.942;2022-09-09T03:04:40;8.23;;;2.57;;
32455;SDS011;18912;43.270;27.942;2022-09-09T03:07:08;3.38;;;1.83;;
32455;SDS011;18912;43.270;27.942;2022-09-09T03:09:35;4.45;;;1.75;;
32455;SDS011;18912;43.270;27.942;2022-09-09T03:12:00;4.47;;;2.00;;
32455;SDS011;18912;43.270;27.942;2022-09-09T03:14:26;7.67;;;2.10;;
32455;SDS011;18912;43.270;27.942;2022-09-09T03:16:52;7.23;;;2.07;;
32455;SDS011;18912;43.270;27.942;2022-09-09T03:19:18;5.65;;;1.60;;
32455;SDS011;18912;43.270;27.942;2022-09-09T03:21:44;3.22;;;1.33;;
32455;SDS011;18912;43.270;27.942;2022-09-09T03:24:10;2.47;;;1.55;;
32455;SDS011;18912;43.270;27.942;2022-09-09T03:26:36;3.47;;;1.50;;
32455;SDS011;18912;43.270;27.942;2022-09-09T03:29:03;6.00;;;1.83;;
32455;SDS011;18912;43.270;27.942;2022-09-09T03:31:35;4.45;;;1.98;;
32455;SDS011;18912;43.270;27.942;2022-09-09T03:34:01;3.90;;;1.70;;
32455;SDS011;18912;43.270;27.942;2022-09-09T03:36:27;3.75;;;1.90;;
32455;SDS011;18912;43.270;27.942;2022-09-09T03:41:20;5.82;;;1.77;;
32455;SDS011;18912;43.270;27.942;2022-09-09T03:43:53;3.95;;;1.70;;
32455;SDS011;18912;43.270;27.942;2022-09-09T03:46:22;5.18;;;1.90;;
32455;SDS011;18912;43.270;27.942;2022-09-09T03:48:49;6.32;;;1.98;;
32455;SDS011;18912;43.270;27.942;2022-09-09T03:51:17;2.97;;;1.90;;
32455;SDS011;18912;43.270;27.942;2022-09-09T03:53:43;5.45;;;1.80;;
32455;SDS011;18912;43.270;27.942;2022-09-09T03:56:09;2.42;;;1.73;;
32455;SDS011;18912;43.270;27.942;2022-09-09T03:58:35;6.50;;;1.90;;
32455;SDS011;18912;43.270;27.942;2022-09-09T04:01:03;9.40;;;2.00;;
32455;SDS011;18912;43.270;27.942;2022-09-09T04:03:33;5.07;;;2.00;;
32455;SDS011;18912;43.270;27.942;2022-09-09T04:06:00;6.40;;;2.40;;
32455;SDS011;18912;43.270;27.942;2022-09-09T04:08:28;4.25;;;2.40;;
32455;SDS011;18912;43.270;27.942;2022-09-09T04:10:56;4.53;;;2.25;;
32455;SDS011;18912;43.270;27.942;2022-09-09T04:15:55;4.07;;;2.03;;
32455;SDS011;18912;43.270;27.942;2022-09-09T04:18:24;4.03;;;2.00;;
32455;SDS011;18912;43.270;27.942;2022-09-09T04:20:51;3.33;;;2.10;;
32455;SDS011;18912;43.270;27.942;2022-09-09T04:23:18;8.25;;;3.42;;
32455;SDS011;18912;43.270;27.942;2022-09-09T04:25:49;6.10;;;1.90;;
32455;SDS011;18912;43.270;27.942;2022-09-09T04:28:16;7.90;;;2.30;;
32455;SDS011;18912;43.270;27.942;2022-09-09T04:30:43;8.07;;;2.17;;
32455;SDS011;18912;43.270;27.942;2022-09-09T04:35:35;4.80;;;1.88;;
32455;SDS011;18912;43.270;27.942;2022-09-09T04:38:01;3.53;;;2.00;;
32455;SDS011;18912;43.270;27.942;2022-09-09T04:40:27;4.95;;;1.83;;
32455;SDS011;18912;43.270;27.942;2022-09-09T04:42:54;2.58;;;1.50;;
32455;SDS011;18912;43.270;27.942;2022-09-09T04:45:20;4.35;;;1.45;;
32455;SDS011;18912;43.270;27.942;2022-09-09T04:47:46;6.10;;;2.07;;
32455;SDS011;18912;43.270;27.942;2022-09-09T04:50:11;4.53;;;1.83;;
32455;SDS011;18912;43.270;27.942;2022-09-09T04:52:37;4.57;;;1.87;;
32455;SDS011;18912;43.270;27.942;2022-09-09T04:55:03;4.70;;;1.50;;
32455;SDS011;18912;43.270;27.942;2022-09-09T04:57:29;3.90;;;1.50;;
32455;SDS011;18912;43.270;27.942;2022-09-09T04:59:56;6.32;;;1.42;;
32455;SDS011;18912;43.270;27.942;2022-09-09T05:02:23;9.48;;;1.85;;
32455;SDS011;18912;43.270;27.942;2022-09-09T05:04:48;4.97;;;1.20;;
32455;SDS011;18912;43.270;27.942;2022-09-09T05:07:14;5.93;;;1.92;;
32455;SDS011;18912;43.270;27.942;2022-09-09T05:09:40;7.00;;;1.90;;
32455;SDS011;18912;43.270;27.942;2022-09-09T05:12:06;8.20;;;1.60;;
32455;SDS011;18912;43.270;27.942;2022-09-09T05:14:31;4.90;;;1.50;;
32455;SDS011;18912;43.270;27.942;2022-09-09T05:16:57;8.30;;;1.77;;
32455;SDS011;18912;43.270;27.942;2022-09-09T05:19:23;3.88;;;1.60;;
32455;SDS011;18912;43.270;27.942;2022-09-09T05:21:48;3.03;;;1.30;;
32455;SDS011;18912;43.270;27.942;2022-09-09T05:24:15;7.50;;;2.13;;
32455;SDS011;18912;43.270;27.942;2022-09-09T05:26:40;6.40;;;1.80;;
32455;SDS011;18912;43.270;27.942;2022-09-09T05:29:06;7.03;;;1.87;;
32455;SDS011;18912;43.270;27.942;2022-09-09T05:31:33;8.30;;;2.33;;
32455;SDS011;18912;43.270;27.942;2022-09-09T05:33:58;4.60;;;2.30;;
32455;SDS011;18912;43.270;27.942;2022-09-09T05:36:24;8.47;;;1.90;;
32455;SDS011;18912;43.270;27.942;2022-09-09T05:38:50;3.87;;;1.77;;
32455;SDS011;18912;43.270;27.942;2022-09-09T05:41:15;10.87;;;2.00;;
32455;SDS011;18912;43.270;27.942;2022-09-09T05:46:16;5.47;;;1.83;;
32455;SDS011;18912;43.270;27.942;2022-09-09T05:51:17;8.27;;;2.53;;
32455;SDS011;18912;43.270;27.942;2022-09-09T05:53:45;7.70;;;2.50;;
32455;SDS011;18912;43.270;27.942;2022-09-09T05:56:15;11.80;;;1.90;;
32455;SDS011;18912;43.270;27.942;2022-09-09T05:58:51;9.02;;;1.48;;
32455;SDS011;18912;43.270;27.942;2022-09-09T06:01:20;5.80;;;1.23;;
32455;SDS011;18912;43.270;27.942;2022-09-09T06:03:48;8.15;;;1.30;;
32455;SDS011;18912;43.270;27.942;2022-09-09T06:06:16;3.75;;;1.40;;
32455;SDS011;18912;43.270;27.942;2022-09-09T06:08:43;2.17;;;1.10;;
32455;SDS011;18912;43.270;27.942;2022-09-09T06:13:40;4.53;;;1.35;;
32455;SDS011;18912;43.270;27.942;2022-09-09T06:16:10;3.42;;;1.60;;
32455;SDS011;18912;43.270;27.942;2022-09-09T06:18:37;8.13;;;1.40;;
32455;SDS011;18912;43.270;27.942;2022-09-09T06:21:04;2.28;;;1.23;;
32455;SDS011;18912;43.270;27.942;2022-09-09T06:23:31;2.85;;;1.45;;
32455;SDS011;18912;43.270;27.942;2022-09-09T06:26:01;3.45;;;1.23;;
32455;SDS011;18912;43.270;27.942;2022-09-09T06:28:31;4.88;;;1.58;;
32455;SDS011;18912;43.270;27.942;2022-09-09T06:31:00;4.45;;;1.23;;
32455;SDS011;18912;43.270;27.942;2022-09-09T06:33:26;5.35;;;1.60;;
32455;SDS011;18912;43.270;27.942;2022-09-09T06:35:55;4.10;;;1.52;;
32455;SDS011;18912;43.270;27.942;2022-09-09T06:38:22;4.32;;;1.27;;
32455;SDS011;18912;43.270;27.942;2022-09-09T06:40:54;3.28;;;1.38;;
32455;SDS011;18912;43.270;27.942;2022-09-09T06:43:22;8.55;;;1.67;;
32455;SDS011;18912;43.270;27.942;2022-09-09T06:48:24;7.40;;;1.75;;
32455;SDS011;18912;43.270;27.942;2022-09-09T06:51:09;8.43;;;1.85;;
32455;SDS011;18912;43.270;27.942;2022-09-09T06:53:36;2.30;;;1.35;;
32455;SDS011;18912;43.270;27.942;2022-09-09T06:58:53;5.65;;;2.17;;
32455;SDS011;18912;43.270;27.942;2022-09-09T07:01:21;5.70;;;1.58;;
32455;SDS011;18912;43.270;27.942;2022-09-09T07:03:50;4.50;;;1.90;;
32455;SDS011;18912;43.270;27.942;2022-09-09T07:06:18;2.80;;;1.40;;
32455;SDS011;18912;43.270;27.942;2022-09-09T07:08:49;4.15;;;1.15;;
32455;SDS011;18912;43.270;27.942;2022-09-09T07:11:16;4.28;;;1.60;;
32455;SDS011;18912;43.270;27.942;2022-09-09T07:13:43;2.40;;;1.35;;
32455;SDS011;18912;43.270;27.942;2022-09-09T07:16:10;3.90;;;1.57;;
32455;SDS011;18912;43.270;27.942;2022-09-09T07:18:36;6.80;;;1.52;;
32455;SDS011;18912;43.270;27.942;2022-09-09T07:21:02;5.50;;;1.50;;
32455;SDS011;18912;43.270;27.942;2022-09-09T07:23:29;4.20;;;1.52;;
32455;SDS011;18912;43.270;27.942;2022-09-09T07:28:21;5.25;;;1.55;;
32455;SDS011;18912;43.270;27.942;2022-09-09T07:30:55;3.50;;;1.27;;
32455;SDS011;18912;43.270;27.942;2022-09-09T07:33:22;2.25;;;1.33;;
32455;SDS011;18912;43.270;27.942;2022-09-09T07:35:48;3.65;;;1.65;;
32455;SDS011;18912;43.270;27.942;2022-09-09T07:38:14;3.22;;;1.55;;
32455;SDS011;18912;43.270;27.942;2022-09-09T07:40:39;6.33;;;2.20;;
32455;SDS011;18912;43.270;27.942;2022-09-09T07:43:05;5.03;;;1.60;;
32455;SDS011;18912;43.270;27.942;2022-09-09T07:45:30;4.63;;;1.53;;
32455;SDS011;18912;43.270;27.942;2022-09-09T07:47:57;4.22;;;1.08;;
32455;SDS011;18912;43.270;27.942;2022-09-09T07:50:23;6.83;;;1.70;;
32455;SDS011;18912;43.270;27.942;2022-09-09T07:52:49;7.13;;;1.47;;
32455;SDS011;18912;43.270;27.942;2022-09-09T07:55:15;4.85;;;1.33;;
32455;SDS011;18912;43.270;27.942;2022-09-09T07:57:41;7.87;;;1.67;;
32455;SDS011;18912;43.270;27.942;2022-09-09T08:00:07;4.93;;;1.57;;
32455;SDS011;18912;43.270;27.942;2022-09-09T08:02:33;3.22;;;1.13;;
32455;SDS011;18912;43.270;27.942;2022-09-09T08:04:58;5.90;;;1.27;;
32455;SDS011;18912;43.270;27.942;2022-09-09T08:07:23;3.33;;;1.50;;
32455;SDS011;18912;43.270;27.942;2022-09-09T08:09:49;4.97;;;1.33;;
32455;SDS011;18912;43.270;27.942;2022-09-09T08:12:15;3.63;;;1.20;;
32455;SDS011;18912;43.270;27.942;2022-09-09T08:14:41;4.45;;;1.90;;
32455;SDS011;18912;43.270;27.942;2022-09-09T08:17:07;10.90;;;1.70;;
32455;SDS011;18912;43.270;27.942;2022-09-09T08:19:32;7.57;;;1.23;;
32455;SDS011;18912;43.270;27.942;2022-09-09T08:22:01;8.32;;;1.48;;
32455;SDS011;18912;43.270;27.942;2022-09-09T08:24:28;7.85;;;1.92;;
32455;SDS011;18912;43.270;27.942;2022-09-09T08:26:53;7.40;;;1.40;;
32455;SDS011;18912;43.270;27.942;2022-09-09T08:29:21;6.00;;;1.30;;
32455;SDS011;18912;43.270;27.942;2022-09-09T08:31:47;7.97;;;1.60;;
32455;SDS011;18912;43.270;27.942;2022-09-09T08:34:19;5.60;;;1.33;;
32455;SDS011;18912;43.270;27.942;2022-09-09T08:36:46;3.95;;;1.40;;
32455;SDS011;18912;43.270;27.942;2022-09-09T08:39:13;4.22;;;1.38;;
32455;SDS011;18912;43.270;27.942;2022-09-09T08:50:24;4.55;;;1.40;;
32455;SDS011;18912;43.270;27.942;2022-09-09T08:58:31;3.72;;;1.15;;
32455;SDS011;18912;43.270;27.942;2022-09-09T09:11:48;1.80;;;1.30;;
32455;SDS011;18912;43.270;27.942;2022-09-09T09:14:23;6.22;;;1.20;;
32455;SDS011;18912;43.270;27.942;2022-09-09T09:17:00;7.78;;;1.30;;
32455;SDS011;18912;43.270;27.942;2022-09-09T09:19:28;2.97;;;1.48;;
32455;SDS011;18912;43.270;27.942;2022-09-09T09:24:46;5.38;;;1.63;;
32455;SDS011;18912;43.270;27.942;2022-09-09T09:30:17;2.08;;;1.80;;
32455;SDS011;18912;43.270;27.942;2022-09-09T09:35:23;3.20;;;1.23;;
32455;SDS011;18912;43.270;27.942;2022-09-09T09:37:49;7.53;;;1.43;;
32455;SDS011;18912;43.270;27.942;2022-09-09T09:40:16;1.65;;;1.00;;
32455;SDS011;18912;43.270;27.942;2022-09-09T09:42:51;4.32;;;1.63;;
32455;SDS011;18912;43.270;27.942;2022-09-09T09:45:34;6.28;;;1.90;;
32455;SDS011;18912;43.270;27.942;2022-09-09T09:48:11;2.58;;;1.40;;
32455;SDS011;18912;43.270;27.942;2022-09-09T09:53:23;6.65;;;2.05;;
32455;SDS011;18912;43.270;27.942;2022-09-09T09:55:59;5.22;;;1.83;;
32455;SDS011;18912;43.270;27.942;2022-09-09T09:58:27;3.33;;;1.70;;
32455;SDS011;18912;43.270;27.942;2022-09-09T10:00:59;4.40;;;1.40;;
32455;SDS011;18912;43.270;27.942;2022-09-09T10:05:54;5.60;;;1.60;;
32455;SDS011;18912;43.270;27.942;2022-09-09T10:08:21;50.33;;;3.75;;
32455;SDS011;18912;43.270;27.942;2022-09-09T10:24:36;6.93;;;1.30;;
32455;SDS011;18912;43.270;27.942;2022-09-09T10:27:11;2.88;;;1.40;;
32455;SDS011;18912;43.270;27.942;2022-09-09T10:32:15;12.55;;;1.85;;
32455;SDS011;18912;43.270;27.942;2022-09-09T10:49:10;6.45;;;1.88;;
32455;SDS011;18912;43.270;27.942;2022-09-09T10:57:43;5.32;;;1.50;;
32455;SDS011;18912;43.270;27.942;2022-09-09T11:00:27;4.97;;;1.30;;
32455;SDS011;18912;43.270;27.942;2022-09-09T11:03:03;7.05;;;1.48;;
32455;SDS011;18912;43.270;27.942;2022-09-09T11:05:42;6.18;;;1.80;;
32455;SDS011;18912;43.270;27.942;2022-09-09T11:08:20;3.13;;;1.25;;
32455;SDS011;18912;43.270;27.942;2022-09-09T11:10:53;4.35;;;1.50;;
32455;SDS011;18912;43.270;27.942;2022-09-09T11:16:27;2.15;;;1.35;;
32455;SDS011;18912;43.270;27.942;2022-09-09T11:18:57;6.30;;;1.65;;
32455;SDS011;18912;43.270;27.942;2022-09-09T11:21:28;5.30;;;1.83;;
32455;SDS011;18912;43.270;27.942;2022-09-09T11:24:00;10.05;;;1.25;;
32455;SDS011;18912;43.270;27.942;2022-09-09T11:26:39;6.28;;;1.60;;
32455;SDS011;18912;43.270;27.942;2022-09-09T11:32:17;3.83;;;1.60;;
32455;SDS011;18912;43.270;27.942;2022-09-09T11:35:47;5.68;;;1.52;;
32455;SDS011;18912;43.270;27.942;2022-09-09T11:40:39;5.85;;;1.70;;
32455;SDS011;18912;43.270;27.942;2022-09-09T11:43:08;4.23;;;1.63;;
32455;SDS011;18912;43.270;27.942;2022-09-09T11:45:40;3.95;;;1.55;;
32455;SDS011;18912;43.270;27.942;2022-09-09T11:48:22;5.65;;;1.67;;
32455;SDS011;18912;43.270;27.942;2022-09-09T11:50:57;5.80;;;1.27;;
32455;SDS011;18912;43.270;27.942;2022-09-09T11:53:25;5.47;;;1.50;;
32455;SDS011;18912;43.270;27.942;2022-09-09T11:56:34;3.28;;;1.88;;
32455;SDS011;18912;43.270;27.942;2022-09-09T11:58:56;4.38;;;1.80;;
32455;SDS011;18912;43.270;27.942;2022-09-09T12:01:50;13.45;;;2.22;;
32455;SDS011;18912;43.270;27.942;2022-09-09T12:11:44;3.50;;;1.70;;
32455;SDS011;18912;43.270;27.942;2022-09-09T12:14:19;6.33;;;1.30;;
32455;SDS011;18912;43.270;27.942;2022-09-09T12:17:10;6.88;;;1.60;;
32455;SDS011;18912;43.270;27.942;2022-09-09T12:19:44;2.72;;;1.30;;
32455;SDS011;18912;43.270;27.942;2022-09-09T12:25:03;5.18;;;1.90;;
32455;SDS011;18912;43.270;27.942;2022-09-09T12:30:16;5.78;;;1.67;;
32455;SDS011;18912;43.270;27.942;2022-09-09T12:32:42;8.93;;;1.75;;
32455;SDS011;18912;43.270;27.942;2022-09-09T12:38:01;3.53;;;1.80;;
32455;SDS011;18912;43.270;27.942;2022-09-09T12:40:32;5.15;;;1.65;;
32455;SDS011;18912;43.270;27.942;2022-09-09T12:43:22;3.38;;;1.17;;
32455;SDS011;18912;43.270;27.942;2022-09-09T12:45:47;1.70;;;1.40;;
32455;SDS011;18912;43.270;27.942;2022-09-09T12:48:16;4.93;;;1.73;;
32455;SDS011;18912;43.270;27.942;2022-09-09T12:50:46;7.50;;;1.60;;
32455;SDS011;18912;43.270;27.942;2022-09-09T12:53:25;2.85;;;1.05;;
32455;SDS011;18912;43.270;27.942;2022-09-09T12:56:01;4.68;;;1.25;;
32455;SDS011;18912;43.270;27.942;2022-09-09T12:58:28;5.70;;;1.25;;
32455;SDS011;18912;43.270;27.942;2022-09-09T13:00:58;2.10;;;1.05;;
32455;SDS011;18912;43.270;27.942;2022-09-09T13:03:25;3.95;;;1.15;;
32455;SDS011;18912;43.270;27.942;2022-09-09T13:05:51;2.28;;;1.52;;
32455;SDS011;18912;43.270;27.942;2022-09-09T13:08:19;9.95;;;1.67;;
32455;SDS011;18912;43.270;27.942;2022-09-09T13:13:26;7.22;;;1.40;;
32455;SDS011;18912;43.270;27.942;2022-09-09T13:16:23;5.38;;;1.77;;
32455;SDS011;18912;43.270;27.942;2022-09-09T13:18:56;5.50;;;1.60;;
32455;SDS011;18912;43.270;27.942;2022-09-09T13:21:39;7.45;;;1.50;;
32455;SDS011;18912;43.270;27.942;2022-09-09T13:24:06;3.90;;;1.60;;
32455;SDS011;18912;43.270;27.942;2022-09-09T13:26:54;7.72;;;1.52;;
32455;SDS011;18912;43.270;27.942;2022-09-09T13:29:24;8.60;;;2.43;;
32455;SDS011;18912;43.270;27.942;2022-09-09T13:31:50;5.95;;;1.40;;
32455;SDS011;18912;43.270;27.942;2022-09-09T13:34:31;11.18;;;1.70;;
32455;SDS011;18912;43.270;27.942;2022-09-09T13:37:02;4.72;;;1.85;;
32455;SDS011;18912;43.270;27.942;2022-09-09T13:39:36;6.68;;;1.80;;
32455;SDS011;18912;43.270;27.942;2022-09-09T13:42:03;8.45;;;1.85;;
32455;SDS011;18912;43.270;27.942;2022-09-09T13:44:36;9.05;;;2.33;;
32455;SDS011;18912;43.270;27.942;2022-09-09T13:47:05;5.32;;;1.80;;
32455;SDS011;18912;43.270;27.942;2022-09-09T13:49:45;4.05;;;2.08;;
32455;SDS011;18912;43.270;27.942;2022-09-09T13:54:38;5.70;;;2.00;;
32455;SDS011;18912;43.270;27.942;2022-09-09T13:57:05;7.88;;;3.00;;
32455;SDS011;18912;43.270;27.942;2022-09-09T13:59:38;5.22;;;2.17;;
32455;SDS011;18912;43.270;27.942;2022-09-09T14:02:04;4.07;;;2.23;;
32455;SDS011;18912;43.270;27.942;2022-09-09T14:04:30;7.50;;;2.38;;
32455;SDS011;18912;43.270;27.942;2022-09-09T14:06:56;5.43;;;2.03;;
32455;SDS011;18912;43.270;27.942;2022-09-09T14:09:21;11.13;;;2.67;;
32455;SDS011;18912;43.270;27.942;2022-09-09T14:11:47;4.77;;;2.37;;
32455;SDS011;18912;43.270;27.942;2022-09-09T14:14:12;4.20;;;1.97;;
32455;SDS011;18912;43.270;27.942;2022-09-09T14:16:38;4.60;;;2.77;;
32455;SDS011;18912;43.270;27.942;2022-09-09T14:19:03;19.70;;;3.57;;
32455;SDS011;18912;43.270;27.942;2022-09-09T14:21:29;6.10;;;2.73;;
32455;SDS011;18912;43.270;27.942;2022-09-09T14:23:55;5.93;;;2.53;;
32455;SDS011;18912;43.270;27.942;2022-09-09T14:26:23;9.68;;;2.95;;
32455;SDS011;18912;43.270;27.942;2022-09-09T14:31:15;7.35;;;2.78;;
32455;SDS011;18912;43.270;27.942;2022-09-09T14:33:42;5.28;;;2.25;;
32455;SDS011;18912;43.270;27.942;2022-09-09T14:36:08;4.07;;;2.63;;
32455;SDS011;18912;43.270;27.942;2022-09-09T14:38:35;5.37;;;3.00;;
32455;SDS011;18912;43.270;27.942;2022-09-09T14:41:07;4.72;;;2.20;;
32455;SDS011;18912;43.270;27.942;2022-09-09T14:43:40;5.57;;;2.35;;
32455;SDS011;18912;43.270;27.942;2022-09-09T14:46:09;9.68;;;3.38;;
32455;SDS011;18912;43.270;27.942;2022-09-09T14:48:36;5.00;;;2.50;;
32455;SDS011;18912;43.270;27.942;2022-09-09T14:51:35;8.38;;;2.50;;
32455;SDS011;18912;43.270;27.942;2022-09-09T14:53:55;7.10;;;2.35;;
32455;SDS011;18912;43.270;27.942;2022-09-09T14:56:23;5.70;;;2.20;;
32455;SDS011;18912;43.270;27.942;2022-09-09T14:58:52;7.82;;;2.10;;
32455;SDS011;18912;43.270;27.942;2022-09-09T15:01:20;11.02;;;2.55;;
32455;SDS011;18912;43.270;27.942;2022-09-09T15:03:50;3.77;;;2.50;;
32455;SDS011;18912;43.270;27.942;2022-09-09T15:06:20;5.97;;;2.45;;
32455;SDS011;18912;43.270;27.942;2022-09-09T15:08:47;8.68;;;2.70;;
32455;SDS011;18912;43.270;27.942;2022-09-09T15:11:14;7.43;;;2.38;;
32455;SDS011;18912;43.270;27.942;2022-09-09T15:13:42;5.95;;;2.15;;
32455;SDS011;18912;43.270;27.942;2022-09-09T15:16:15;9.00;;;2.58;;
32455;SDS011;18912;43.270;27.942;2022-09-09T15:18:42;3.70;;;2.58;;
32455;SDS011;18912;43.270;27.942;2022-09-09T15:21:14;6.10;;;2.33;;
32455;SDS011;18912;43.270;27.942;2022-09-09T15:23:41;6.97;;;2.28;;
32455;SDS011;18912;43.270;27.942;2022-09-09T15:26:07;10.10;;;2.40;;
32455;SDS011;18912;43.270;27.942;2022-09-09T15:28:34;13.07;;;3.20;;
32455;SDS011;18912;43.270;27.942;2022-09-09T15:31:06;6.45;;;2.22;;
32455;SDS011;18912;43.270;27.942;2022-09-09T15:33:35;5.45;;;2.42;;
32455;SDS011;18912;43.270;27.942;2022-09-09T15:36:16;7.32;;;2.67;;
32455;SDS011;18912;43.270;27.942;2022-09-09T15:38:42;5.63;;;2.30;;
32455;SDS011;18912;43.270;27.942;2022-09-09T15:41:08;4.43;;;1.90;;
32455;SDS011;18912;43.270;27.942;2022-09-09T15:43:33;8.00;;;2.80;;
32455;SDS011;18912;43.270;27.942;2022-09-09T15:46:00;6.90;;;2.50;;
32455;SDS011;18912;43.270;27.942;2022-09-09T15:48:51;6.22;;;2.25;;
32455;SDS011;18912;43.270;27.942;2022-09-09T15:51:17;5.60;;;2.50;;
32455;SDS011;18912;43.270;27.942;2022-09-09T15:56:09;7.25;;;2.80;;
32455;SDS011;18912;43.270;27.942;2022-09-09T15:58:35;12.40;;;2.83;;
32455;SDS011;18912;43.270;27.942;2022-09-09T16:01:04;6.93;;;2.60;;
32455;SDS011;18912;43.270;27.942;2022-09-09T16:03:35;4.65;;;2.80;;
32455;SDS011;18912;43.270;27.942;2022-09-09T16:06:02;10.15;;;2.88;;
32455;SDS011;18912;43.270;27.942;2022-09-09T16:08:33;7.93;;;2.85;;
32455;SDS011;18912;43.270;27.942;2022-09-09T16:13:36;15.52;;;3.67;;
32455;SDS011;18912;43.270;27.942;2022-09-09T16:16:02;8.02;;;3.53;;
32455;SDS011;18912;43.270;27.942;2022-09-09T16:18:39;7.22;;;2.97;;
32455;SDS011;18912;43.270;27.942;2022-09-09T16:21:06;5.40;;;3.45;;
32455;SDS011;18912;43.270;27.942;2022-09-09T16:23:33;9.07;;;3.25;;
32455;SDS011;18912;43.270;27.942;2022-09-09T16:28:25;14.50;;;3.58;;
32455;SDS011;18912;43.270;27.942;2022-09-09T16:30:51;5.60;;;2.93;;
32455;SDS011;18912;43.270;27.942;2022-09-09T16:33:17;6.77;;;3.67;;
32455;SDS011;18912;43.270;27.942;2022-09-09T16:35:42;8.20;;;2.87;;
32455;SDS011;18912;43.270;27.942;2022-09-09T16:38:09;16.20;;;3.05;;
32455;SDS011;18912;43.270;27.942;2022-09-09T16:40:35;9.02;;;2.75;;
32455;SDS011;18912;43.270;27.942;2022-09-09T16:43:02;21.85;;;3.58;;
32455;SDS011;18912;43.270;27.942;2022-09-09T16:45:28;9.10;;;2.80;;
32455;SDS011;18912;43.270;27.942;2022-09-09T16:47:54;10.63;;;2.95;;
32455;SDS011;18912;43.270;27.942;2022-09-09T16:50:19;11.87;;;3.23;;
32455;SDS011;18912;43.270;27.942;2022-09-09T16:52:45;8.70;;;3.03;;
32455;SDS011;18912;43.270;27.942;2022-09-09T16:55:10;7.50;;;3.50;;
32455;SDS011;18912;43.270;27.942;2022-09-09T16:57:36;9.57;;;3.43;;
32455;SDS011;18912;43.270;27.942;2022-09-09T17:00:04;10.57;;;3.10;;
32455;SDS011;18912;43.270;27.942;2022-09-09T17:02:32;8.15;;;3.35;;
32455;SDS011;18912;43.270;27.942;2022-09-09T17:04:57;7.93;;;3.83;;
32455;SDS011;18912;43.270;27.942;2022-09-09T17:07:23;8.03;;;3.27;;
32455;SDS011;18912;43.270;27.942;2022-09-09T17:09:48;6.80;;;3.50;;
32455;SDS011;18912;43.270;27.942;2022-09-09T17:12:14;9.63;;;3.53;;
32455;SDS011;18912;43.270;27.942;2022-09-09T17:14:41;12.48;;;3.13;;
32455;SDS011;18912;43.270;27.942;2022-09-09T17:17:07;11.90;;;3.10;;
32455;SDS011;18912;43.270;27.942;2022-09-09T17:19:33;13.63;;;3.70;;
32455;SDS011;18912;43.270;27.942;2022-09-09T17:21:58;4.90;;;3.08;;
32455;SDS011;18912;43.270;27.942;2022-09-09T17:24:25;4.93;;;2.83;;
32455;SDS011;18912;43.270;27.942;2022-09-09T17:26:54;5.40;;;3.22;;
32455;SDS011;18912;43.270;27.942;2022-09-09T17:29:20;7.40;;;3.10;;
32455;SDS011;18912;43.270;27.942;2022-09-09T17:31:46;8.73;;;3.33;;
32455;SDS011;18912;43.270;27.942;2022-09-09T17:34:12;4.57;;;3.20;;
32455;SDS011;18912;43.270;27.942;2022-09-09T17:36:37;10.43;;;3.30;;
32455;SDS011;18912;43.270;27.942;2022-09-09T17:39:03;4.57;;;3.00;;
32455;SDS011;18912;43.270;27.942;2022-09-09T17:41:31;5.32;;;2.92;;
32455;SDS011;18912;43.270;27.942;2022-09-09T17:44:01;6.00;;;2.90;;
32455;SDS011;18912;43.270;27.942;2022-09-09T17:46:28;11.73;;;3.15;;
32455;SDS011;18912;43.270;27.942;2022-09-09T17:48:57;9.95;;;2.75;;
32455;SDS011;18912;43.270;27.942;2022-09-09T17:51:28;5.53;;;2.70;;